createdAt,value
2022-11-27T00:00:45.308Z,3.78
2022-11-27T00:03:11.766Z,3.50
2022-11-27T00:05:38.260Z,3.83
2022-11-27T00:08:04.848Z,3.28
2022-11-27T00:10:31.223Z,3.50
2022-11-27T00:12:57.549Z,3.40
2022-11-27T00:15:23.908Z,3.30
2022-11-27T00:17:50.340Z,3.40
2022-11-27T00:20:16.748Z,3.25
2022-11-27T00:22:43.042Z,3.97
2022-11-27T00:25:09.614Z,3.40
2022-11-27T00:27:35.911Z,3.70
2022-11-27T00:30:02.295Z,3.33
2022-11-27T00:32:28.683Z,3.35
2022-11-27T00:34:55.053Z,3.00
2022-11-27T00:37:21.435Z,3.65
2022-11-27T00:39:47.812Z,2.72
2022-11-27T00:42:14.272Z,3.63
2022-11-27T00:44:40.895Z,3.10
2022-11-27T00:47:07.434Z,3.20
2022-11-27T00:49:33.775Z,3.17
2022-11-27T00:52:00.130Z,3.20
2022-11-27T00:54:26.545Z,5.00
2022-11-27T00:56:52.912Z,2.88
2022-11-27T00:59:19.289Z,3.88
2022-11-27T01:01:46.337Z,3.13
2022-11-27T01:04:15.087Z,3.03
2022-11-27T01:06:42.148Z,3.42
2022-11-27T01:09:10.233Z,2.83
2022-11-27T01:11:37.064Z,2.72
2022-11-27T01:14:21.584Z,3.58
2022-11-27T01:16:47.964Z,2.80
2022-11-27T01:19:15.307Z,2.97
2022-11-27T01:21:42.152Z,3.03
2022-11-27T01:24:10.297Z,2.88
2022-11-27T01:26:36.603Z,2.70
2022-11-27T01:29:03.015Z,2.45
2022-11-27T01:31:31.244Z,3.03
2022-11-27T01:34:00.525Z,2.40
2022-11-27T01:36:28.095Z,2.40
2022-11-27T01:38:54.801Z,2.85
2022-11-27T01:41:26.959Z,3.00
2022-11-27T01:43:56.353Z,2.75
2022-11-27T01:46:26.579Z,2.20
2022-11-27T01:48:55.772Z,2.60
2022-11-27T01:51:23.042Z,2.72
2022-11-27T01:53:51.437Z,2.60
2022-11-27T01:56:18.623Z,2.50
2022-11-27T01:58:45.166Z,3.03
2022-11-27T02:01:11.579Z,3.17
2022-11-27T02:03:37.918Z,3.30
2022-11-27T02:06:04.605Z,2.67
2022-11-27T02:08:32.208Z,2.55
2022-11-27T02:11:13.152Z,2.83
2022-11-27T02:13:54.585Z,3.17
2022-11-27T02:17:18.067Z,3.55
2022-11-27T02:19:50.472Z,2.80
2022-11-27T02:22:43.509Z,2.67
2022-11-27T02:25:28.316Z,2.30
2022-11-27T02:28:19.858Z,2.88
2022-11-27T02:30:53.178Z,3.30
2022-11-27T02:33:21.486Z,3.15
2022-11-27T02:35:57.328Z,2.38
2022-11-27T02:38:30.117Z,2.53
2022-11-27T02:41:05.230Z,3.00
2022-11-27T02:43:39.921Z,2.08
2022-11-27T02:46:09.248Z,2.60
2022-11-27T02:48:57.471Z,2.38
2022-11-27T02:51:28.524Z,3.38
2022-11-27T02:54:02.359Z,2.85
2022-11-27T02:56:30.849Z,2.92
2022-11-27T02:59:01.586Z,2.40
2022-11-27T03:01:31.491Z,2.42
2022-11-27T03:04:00.295Z,2.72
2022-11-27T03:06:36.481Z,2.25
2022-11-27T03:09:08.324Z,2.60
2022-11-27T03:11:36.146Z,3.13
2022-11-27T03:14:06.743Z,3.28
2022-11-27T03:16:47.983Z,2.45
2022-11-27T03:19:35.935Z,3.38
2022-11-27T03:22:03.974Z,2.92
2022-11-27T03:24:33.939Z,2.90
2022-11-27T03:27:01.547Z,3.25
2022-11-27T03:29:41.296Z,3.10
2022-11-27T03:32:07.830Z,3.20
2022-11-27T03:34:34.324Z,2.60
2022-11-27T03:37:00.955Z,2.97
2022-11-27T03:39:29.741Z,2.80
2022-11-27T03:42:26.969Z,3.17
2022-11-27T03:45:11.790Z,2.70
2022-11-27T03:47:51.698Z,2.90
2022-11-27T03:50:55.138Z,2.58
2022-11-27T03:53:39.289Z,3.10
2022-11-27T03:56:43.232Z,3.00
2022-11-27T03:59:22.476Z,2.67
2022-11-27T04:01:48.924Z,2.92
2022-11-27T04:04:15.462Z,2.80
2022-11-27T04:06:41.909Z,3.38
2022-11-27T04:09:08.286Z,2.78
2022-11-27T04:11:34.814Z,2.90
2022-11-27T04:14:01.136Z,3.20
2022-11-27T04:16:27.546Z,3.17
2022-11-27T04:18:54.001Z,3.28
2022-11-27T04:21:20.753Z,3.47
2022-11-27T04:23:47.189Z,3.38
2022-11-27T04:26:13.506Z,3.00
2022-11-27T04:28:39.811Z,2.92
2022-11-27T04:31:06.672Z,2.58
2022-11-27T04:33:33.086Z,3.28
2022-11-27T04:35:59.393Z,2.97
2022-11-27T04:38:25.705Z,3.40
2022-11-27T04:40:52.605Z,4.38
2022-11-27T04:43:19.912Z,3.20
2022-11-27T04:45:46.351Z,3.10
2022-11-27T04:48:12.702Z,3.20
2022-11-27T04:50:39.233Z,4.60
2022-11-27T04:53:05.614Z,3.40
2022-11-27T04:55:31.971Z,3.50
2022-11-27T04:57:58.399Z,3.75
2022-11-27T05:00:24.856Z,4.20
2022-11-27T05:02:51.333Z,2.97
2022-11-27T05:05:17.771Z,3.97
2022-11-27T05:07:44.201Z,3.30
2022-11-27T05:10:10.834Z,3.78
2022-11-27T05:12:37.191Z,3.70
2022-11-27T05:15:04.775Z,3.50
2022-11-27T05:17:32.247Z,3.88
2022-11-27T05:19:58.644Z,3.20
2022-11-27T05:22:24.917Z,3.60
2022-11-27T05:24:51.303Z,3.20
2022-11-27T05:27:17.790Z,3.25
2022-11-27T05:29:44.139Z,3.55
2022-11-27T05:32:10.520Z,3.20
2022-11-27T05:34:36.789Z,3.35
2022-11-27T05:37:03.210Z,3.92
2022-11-27T05:39:29.556Z,3.72
2022-11-27T05:41:55.910Z,3.38
2022-11-27T05:44:22.190Z,3.10
2022-11-27T05:46:48.505Z,3.35
2022-11-27T05:49:15.904Z,3.70
2022-11-27T05:51:46.541Z,3.22
2022-11-27T05:54:17.292Z,3.20
2022-11-27T05:56:43.641Z,3.05
2022-11-27T05:59:10.048Z,4.28
2022-11-27T06:01:36.350Z,3.08
2022-11-27T06:04:02.684Z,3.00
2022-11-27T06:06:28.971Z,3.15
2022-11-27T06:08:55.390Z,3.40
2022-11-27T06:11:22.939Z,3.58
2022-11-27T06:13:49.852Z,2.40
2022-11-27T06:16:19.409Z,3.13
2022-11-27T06:18:48.471Z,3.40
2022-11-27T06:21:15.022Z,3.50
2022-11-27T06:23:42.567Z,3.10
2022-11-27T06:26:20.480Z,3.13
2022-11-27T06:28:48.095Z,3.03
2022-11-27T06:31:18.262Z,2.80
2022-11-27T06:33:48.923Z,2.67
2022-11-27T06:36:15.800Z,3.08
2022-11-27T06:38:42.456Z,3.20
2022-11-27T06:41:11.991Z,3.17
2022-11-27T06:43:39.145Z,2.88
2022-11-27T06:46:07.647Z,3.40
2022-11-27T06:48:34.999Z,2.40
2022-11-27T06:51:03.116Z,2.67
2022-11-27T06:53:30.501Z,3.17
2022-11-27T06:55:57.282Z,2.70
2022-11-27T06:58:27.902Z,2.45
2022-11-27T07:00:59.070Z,3.05
2022-11-27T07:03:26.462Z,2.50
2022-11-27T07:05:52.894Z,3.60
2022-11-27T07:08:19.498Z,2.92
2022-11-27T07:10:46.021Z,3.53
2022-11-27T07:13:12.631Z,3.15
2022-11-27T07:15:38.972Z,2.47
2022-11-27T07:18:05.352Z,3.45
2022-11-27T07:20:32.749Z,3.00
2022-11-27T07:22:59.150Z,3.13
2022-11-27T07:25:25.683Z,2.67
2022-11-27T07:27:52.083Z,2.80
2022-11-27T07:30:18.409Z,2.85
2022-11-27T07:32:44.776Z,3.03
2022-11-27T07:35:11.089Z,2.85
2022-11-27T07:37:37.499Z,3.38
2022-11-27T07:40:04.298Z,2.70
2022-11-27T07:42:39.027Z,3.63
2022-11-27T07:45:07.813Z,3.50
2022-11-27T07:47:34.427Z,2.88
2022-11-27T07:50:00.962Z,3.25
2022-11-27T07:52:27.909Z,3.40
2022-11-27T07:54:54.278Z,3.05
2022-11-27T07:57:20.639Z,3.00
2022-11-27T07:59:47.591Z,3.53
2022-11-27T08:02:14.660Z,2.80
2022-11-27T08:04:41.328Z,2.63
2022-11-27T08:07:07.968Z,2.90
2022-11-27T08:09:34.357Z,2.60
2022-11-27T08:12:00.752Z,3.00
2022-11-27T08:14:27.192Z,2.55
2022-11-27T08:16:53.606Z,2.45
2022-11-27T08:19:19.933Z,2.70
2022-11-27T08:21:46.298Z,3.08
2022-11-27T08:24:12.654Z,2.60
2022-11-27T08:26:39.476Z,2.88
2022-11-27T08:29:05.839Z,2.92
2022-11-27T08:31:32.472Z,3.05
2022-11-27T08:33:59.252Z,2.67
2022-11-27T08:36:26.486Z,3.08
2022-11-27T08:38:53.190Z,2.95
2022-11-27T08:41:19.705Z,3.13
2022-11-27T08:43:46.057Z,3.30
2022-11-27T08:46:12.919Z,3.33
2022-11-27T08:48:39.557Z,3.25
2022-11-27T08:51:08.671Z,3.00
2022-11-27T08:53:35.867Z,3.53
2022-11-27T08:56:11.376Z,2.80
2022-11-27T08:58:37.803Z,3.03
2022-11-27T09:01:19.696Z,3.42
2022-11-27T09:03:47.243Z,3.50
2022-11-27T09:06:20.363Z,3.00
2022-11-27T09:08:46.960Z,3.60
2022-11-27T09:11:14.770Z,3.03
2022-11-27T09:13:42.458Z,3.40
2022-11-27T09:16:12.081Z,3.03
2022-11-27T09:18:39.421Z,2.95
2022-11-27T09:21:08.638Z,3.45
2022-11-27T09:23:36.286Z,3.30
2022-11-27T09:26:05.782Z,3.00
2022-11-27T09:28:33.276Z,3.28
2022-11-27T09:31:01.168Z,3.78
2022-11-27T09:33:29.938Z,3.50
2022-11-27T09:35:56.804Z,3.20
2022-11-27T09:38:23.591Z,3.83
2022-11-27T09:40:52.365Z,3.30
2022-11-27T09:43:26.067Z,3.70
2022-11-27T09:45:56.792Z,3.53
2022-11-27T09:48:32.183Z,3.60
2022-11-27T09:51:00.575Z,3.42
2022-11-27T09:53:32.705Z,3.60
2022-11-27T09:56:03.472Z,3.58
2022-11-27T09:58:59.418Z,4.00
2022-11-27T10:01:38.446Z,4.75
2022-11-27T10:04:15.215Z,3.83
2022-11-27T10:06:58.603Z,4.13
2022-11-27T10:09:42.988Z,3.63
2022-11-27T10:12:21.322Z,4.00
2022-11-27T10:15:02.388Z,4.10
2022-11-27T10:17:39.162Z,4.07
2022-11-27T10:20:26.429Z,4.13
2022-11-27T10:23:03.788Z,4.18
2022-11-27T10:25:42.747Z,4.47
2022-11-27T10:28:33.555Z,3.70
2022-11-27T10:31:04.431Z,3.72
2022-11-27T10:33:54.520Z,4.30
2022-11-27T10:36:34.617Z,5.07
2022-11-27T10:39:02.330Z,4.03
2022-11-27T10:41:53.161Z,4.15
2022-11-27T10:44:27.922Z,3.92
2022-11-27T10:47:01.193Z,4.72
2022-11-27T10:49:27.555Z,4.63
2022-11-27T10:51:53.917Z,4.97
2022-11-27T10:54:28.133Z,5.32
2022-11-27T10:57:33.206Z,4.28
2022-11-27T11:00:13.055Z,3.63
2022-11-27T11:02:39.796Z,4.68
2022-11-27T11:05:34.603Z,4.20
2022-11-27T17:47:33.029Z,8.27
2022-11-27T17:49:59.886Z,7.93
2022-11-27T17:52:26.299Z,8.25
2022-11-27T17:54:52.621Z,8.45
2022-11-27T17:57:18.962Z,7.32
2022-11-27T17:59:45.586Z,7.63
2022-11-27T18:02:12.008Z,6.97
2022-11-27T18:04:38.482Z,9.48
2022-11-27T18:07:04.813Z,8.30
2022-11-27T18:09:31.265Z,7.43
2022-11-27T18:11:57.710Z,6.38
2022-11-27T18:14:24.306Z,8.23
2022-11-27T18:16:50.944Z,7.07
2022-11-27T18:19:17.467Z,9.88
2022-11-27T18:21:43.817Z,7.07
2022-11-27T18:24:25.753Z,8.02
2022-11-27T18:27:10.770Z,8.48
2022-11-27T18:29:39.622Z,7.38
2022-11-27T18:32:06.388Z,8.07
2022-11-27T18:34:32.822Z,7.85
2022-11-27T18:36:59.237Z,7.60
2022-11-27T18:39:25.897Z,7.38
2022-11-27T18:41:52.429Z,9.60
2022-11-27T18:44:19.048Z,9.35
2022-11-27T18:46:45.521Z,8.93
2022-11-27T18:49:11.821Z,7.18
2022-11-27T18:51:38.233Z,7.03
2022-11-27T18:54:04.706Z,6.85
2022-11-27T18:56:31.738Z,8.90
2022-11-27T18:59:02.477Z,8.10
2022-11-27T19:01:35.437Z,8.60
2022-11-27T19:04:05.632Z,10.18
2022-11-27T19:06:32.413Z,12.65
2022-11-27T19:08:59.313Z,8.20
2022-11-27T19:11:26.907Z,6.60
2022-11-27T19:13:55.466Z,9.07
2022-11-27T19:16:44.188Z,13.15
2022-11-27T19:19:49.435Z,7.20
2022-11-27T19:21:58.715Z,7.45
2022-11-27T19:24:25.058Z,7.55
2022-11-27T19:26:51.390Z,7.20
2022-11-27T19:29:17.671Z,8.75
2022-11-27T19:31:44.039Z,6.80
2022-11-27T19:34:11.916Z,9.13
2022-11-27T19:36:39.149Z,8.52
2022-11-27T19:39:08.113Z,14.35
2022-11-27T19:41:36.083Z,14.98
2022-11-27T19:44:04.954Z,9.75
2022-11-27T19:46:33.673Z,7.70
2022-11-27T19:49:02.109Z,8.13
2022-11-27T19:51:33.742Z,7.53
2022-11-27T19:54:02.613Z,7.15
2022-11-27T19:56:32.911Z,7.93
2022-11-27T19:59:00.149Z,8.35
2022-11-27T20:01:26.654Z,8.68
2022-11-27T20:03:53.044Z,7.88
2022-11-27T20:06:22.841Z,6.40
2022-11-27T20:08:50.776Z,7.63
2022-11-27T20:11:22.469Z,7.47
2022-11-27T20:13:49.602Z,6.50
2022-11-27T20:16:19.575Z,7.25
2022-11-27T20:18:46.864Z,7.15
2022-11-27T20:21:18.632Z,7.55
2022-11-27T20:23:46.156Z,7.30
2022-11-27T20:26:15.747Z,6.20
2022-11-27T20:28:42.468Z,6.78
2022-11-27T20:31:28.938Z,7.78
2022-11-27T20:33:57.273Z,6.72
2022-11-27T20:36:25.045Z,6.40
2022-11-27T20:38:52.470Z,7.03
2022-11-27T20:41:20.815Z,6.80
2022-11-27T20:43:47.491Z,8.02
2022-11-27T20:46:15.691Z,6.60
2022-11-27T20:48:45.650Z,7.22
2022-11-27T20:51:19.094Z,6.70
2022-11-27T20:53:47.105Z,6.50
2022-11-27T20:56:15.992Z,6.78
2022-11-27T20:58:44.044Z,7.03
2022-11-27T21:01:37.087Z,6.43
2022-11-27T21:04:08.053Z,6.15
2022-11-27T21:06:39.244Z,7.10
2022-11-27T21:09:09.660Z,6.70
2022-11-27T21:11:36.924Z,7.07
2022-11-27T21:14:06.156Z,6.72
2022-11-27T21:16:34.955Z,6.15
2022-11-27T21:19:06.826Z,6.88
2022-11-27T21:21:34.278Z,6.82
2022-11-27T21:24:00.726Z,6.20
2022-11-27T21:26:27.666Z,6.07
2022-11-27T21:28:54.269Z,5.82
2022-11-27T21:31:26.248Z,6.38
2022-11-27T21:33:58.444Z,6.13
2022-11-27T21:36:28.925Z,6.13
2022-11-27T21:38:57.296Z,5.55
2022-11-27T21:41:24.137Z,6.18
2022-11-27T21:43:54.821Z,5.70
2022-11-27T21:46:22.659Z,5.20
2022-11-27T21:48:51.032Z,5.68
2022-11-27T21:51:18.399Z,6.15
2022-11-27T21:53:46.254Z,5.93
2022-11-27T21:56:15.151Z,6.68
2022-11-27T21:58:41.722Z,6.32
2022-11-27T22:01:11.589Z,5.72
2022-11-27T22:03:42.339Z,6.65
2022-11-27T22:06:15.218Z,5.70
2022-11-27T22:08:44.068Z,6.32
2022-11-27T22:11:15.863Z,6.68
2022-11-27T22:13:42.381Z,6.28
2022-11-27T22:16:14.361Z,7.00
2022-11-27T22:18:41.153Z,6.18
2022-11-27T22:21:09.109Z,6.60
2022-11-27T22:23:36.278Z,5.53
2022-11-27T22:26:04.195Z,7.53
2022-11-27T22:28:30.939Z,7.25
2022-11-27T22:30:57.389Z,7.78
2022-11-27T22:33:24.764Z,7.30
2022-11-27T22:35:51.090Z,6.93
2022-11-27T22:38:17.409Z,7.88
2022-11-27T22:40:44.015Z,7.45
2022-11-27T22:43:10.529Z,7.00
2022-11-27T22:45:40.349Z,7.30
2022-11-27T22:48:06.908Z,7.20
2022-11-27T22:50:33.307Z,7.25
2022-11-27T22:52:59.578Z,6.53
2022-11-27T22:55:25.888Z,6.60
2022-11-27T22:57:52.207Z,6.82
2022-11-27T23:00:18.692Z,6.53
2022-11-27T23:02:45.253Z,6.90
2022-11-27T23:05:11.698Z,6.80
2022-11-27T23:07:38.135Z,6.53
2022-11-27T23:10:04.905Z,6.68
2022-11-27T23:12:31.284Z,7.07
2022-11-27T23:14:57.558Z,6.20
2022-11-27T23:17:23.819Z,6.28
2022-11-27T23:19:50.152Z,6.85
2022-11-27T23:22:16.517Z,6.03
2022-11-27T23:24:43.186Z,6.53
2022-11-27T23:27:09.727Z,5.75
2022-11-27T23:29:36.087Z,6.40
2022-11-27T23:32:02.494Z,5.80
2022-11-27T23:34:28.985Z,6.55
2022-11-27T23:36:55.271Z,6.10
2022-11-27T23:39:21.575Z,6.35
2022-11-27T23:41:47.930Z,5.75
2022-11-27T23:44:14.537Z,7.05
2022-11-27T23:46:40.869Z,6.20
2022-11-27T23:49:07.225Z,6.50
2022-11-27T23:51:33.590Z,6.68
2022-11-27T23:54:00.907Z,6.80
2022-11-27T23:56:30.660Z,7.07
2022-11-27T23:58:57.910Z,7.30
